Main page
METAR-TAF:

METAR-TAF

Airports :

Apalachicola Regional Airport

Apalachicola, Florida, United States

latitude: 29-43-37N, longitude: 085-01-29W, elevation: 20 ft

Current weather observation

The report was made 1 hour and 9 minutes ago, at 21:53 UTC
Wind 12 mph from the South/Southwest
Temperature 90°F
Humidity 63%
Pressure 30.05 in. Hg
Visibility: 10 miles
Clear sky

METAR: KAAF 142153Z AUTO 21010KT 10SM CLR 32/24 A3005 RMK AO2 LTG DSNT N AND NE SLP176 T03220244

Time: 19:02 (23:02 UTC)


TAF: missing

Weather observations and forecasts of more than 4000 airports (METAR and TAF reports).

The available stations are represented by yellow and red dots on the map.

Hover mouse over dot to see the name of the station.

Then click to see weather observations and forecasts.

To change the map : click on the green buttons with a black cross to zoom in, on the green button with a dash to zoom out, or on the green arrows for adjacent maps.


METAR-TAF: